Accueil
METAR-TAF:

METAR-TAF

Aéroports :

Castres, France

Aéroport de Castres-Mazamet

latitude: 43-33-25N, longitude: 2-17-21E, altitude: 239 m

Observation

Le bulletin a été fait il y a 24 minutes, à 01:30 UTC
Vent 8 kt de nord-ouest
Température 21°C
Humidité 83%
Pression 1023 hPa
Visibilité 10 km ou plus
Quelques nuages à une hauteur de 1600 ft
Ciel couvert à une hauteur de 3400 ft

METAR: LFCK 240130Z AUTO 32008KT 9999 FEW016 OVC034 21/18 Q1023

Heure: 03:54 (01:54 UTC)

Prévision

Le bulletin a été fait il y a 8 heures et 54 minutes, à 17:00 UTC
Prévision valable du 23 à 18 UTC au 24 à 03 UTC
Vent 5 kt de ouest
Visibilité 10 km ou plus
Nuages fragmentés à une hauteur de 2500 ft

TAF: LFCK 231700Z 2318/2403 27005KT 9999 BKN025

Observations et prévisions météorologiques de plus de 4000 aéroports (messages METAR et TAF).

Les stations disponibles sont représentées par des disques jaunes et rouges sur la carte.

Passer la souris dessus pour voir le nom de la station.

Cliquer dessus pour voir les observations et prévisions météorologiques.

Pour changer de carte: cliquez sur les boutons verts avec une croix noire pour zoomer, sur le bouton vert avec un tiret pour effectuer un zoom arrière, ou sur les flèches vertes pour les cartes adjacentes.


METAR-TAF: